Alexander Maersk — OZRC2 — position and weather

sailwx.info

Track history (hours):
 
Tides and Currents Weather Stations Pressure Air Temp Water Temp Dewpoint Dewpoint Depression Visibility Wind Speed Wind Dir Waves Ship Positions

Alexander Maersk

Last reported at 2015-May-26 07:03 UTC. Time now 2015-May-28 04:06 UTC.
Position N 32°39' E 015°15'.

Length 155 m; draft 9.6 m.

Type: Ship. MMSI: 219470000.

Date/timePositionNaut miles runAvg speedWind from/ knotsBaromVisibWave heightAir tempDewpointWater temp
2015-May-26 07:03N 32°39' E 015°15'4 8.0
2015-May-26 06:33N 32°43' E 015°14'35 7.9
2015-May-26 02:07N 33°18' E 015°07'4 7.9
2015-May-26 01:33N 33°22' E 015°06'9 7.9
2015-May-26 00:23N 33°31' E 015°04'7 8.0
2015-May-25 23:33N 33°38' E 015°02'8 8.3
2015-May-25 22:33N 33°46' E 015°01'8 8.4
2015-May-25 21:33N 33°54' E 014°59'44 8.7
2015-May-25 16:32N 34°37' E 014°49'9 9.0
2015-May-25 15:32N 34°46' E 014°47'54 8.9
2015-May-25 09:31N 35°39' E 014°37'9 9.1
2015-May-25 08:33N 35°48' E 014°34'2 0.1
2015-May-24 00:21N 35°49' E 014°33'4 4.6
2015-May-23 23:34N 35°48' E 014°37'4 4.3
2015-May-23 22:33N 35°51' E 014°41'0 0.1
2015-May-23 21:33N 35°51' E 014°41'0 0.0
2015-May-23 20:33N 35°51' E 014°41'0 0.0
2015-May-23 19:33N 35°51' E 014°41'0 0.0
2015-May-23 18:33N 35°51' E 014°41'0 0.0
2015-May-23 17:33N 35°51' E 014°41'0 0.0
2015-May-23 16:33N 35°51' E 014°41'0 0.0
2015-May-23 15:33N 35°51' E 014°41'0 0.0
2015-May-23 14:33N 35°51' E 014°41'0 0.0
2015-May-23 13:33N 35°51' E 014°41'0 0.0
2015-May-23 12:33N 35°51' E 014°41'0 0.1
2015-May-23 11:33N 35°51' E 014°41'0 0.0
2015-May-23 10:33N 35°51' E 014°41'0 0.0
2015-May-23 09:33N 35°51' E 014°41'0 0.0
2015-May-23 08:33N 35°51' E 014°41'0 0.0
2015-May-23 07:33N 35°51' E 014°41'0 0.0
2015-May-23 06:33N 35°51' E 014°41'0 0.0
2015-May-23 05:33N 35°51' E 014°41'0 0.1
2015-May-23 04:33N 35°51' E 014°41'0 0.0
2015-May-23 03:33N 35°51' E 014°41'0 0.0
2015-May-23 02:30N 35°51' E 014°41'0 0.0
2015-May-23 01:33N 35°51' E 014°41'0 0.0
2015-May-23 00:33N 35°51' E 014°41'0 0.0
2015-May-22 23:33N 35°51' E 014°41'0 0.0
2015-May-22 22:33N 35°51' E 014°41'0 0.0
2015-May-22 21:33N 35°51' E 014°41'0 0.1
2015-May-22 20:33N 35°51' E 014°41'0 0.0
2015-May-22 19:33N 35°51' E 014°41'0 0.0
2015-May-22 18:33N 35°51' E 014°41'0 0.0
2015-May-22 17:33N 35°51' E 014°41'0 0.1
2015-May-22 16:33N 35°51' E 014°41'0 0.1
2015-May-22 15:33N 35°51' E 014°41'0 0.0
2015-May-22 14:33N 35°51' E 014°41'0 0.0
2015-May-22 13:33N 35°51' E 014°41'0 0.0
2015-May-22 12:33N 35°51' E 014°41'0 0.0
2015-May-22 11:33N 35°51' E 014°41'0 0.0
2015-May-22 10:33N 35°51' E 014°41'0 0.0
2015-May-22 09:33N 35°51' E 014°41'0 0.0
2015-May-22 08:33N 35°51' E 014°41'0 0.0
2015-May-22 07:33N 35°51' E 014°41'0 0.0
2015-May-22 06:33N 35°51' E 014°41'0 0.0
2015-May-22 05:30N 35°51' E 014°41'0 0.0
2015-May-22 04:33N 35°51' E 014°41'0 0.0
2015-May-22 03:33N 35°51' E 014°41'0 0.0
2015-May-22 02:33N 35°51' E 014°41'0 0.0
2015-May-22 01:33N 35°51' E 014°41'0 0.0
2015-May-22 00:33N 35°51' E 014°41'0 0.0
2015-May-21 23:33N 35°51' E 014°41'0 0.0
2015-May-21 22:33N 35°51' E 014°41'0 0.1
2015-May-21 21:33N 35°51' E 014°41'0 0.0
2015-May-21 20:33N 35°51' E 014°41'0 0.0
2015-May-21 19:33N 35°51' E 014°41'0 0.1
2015-May-21 18:27N 35°51' E 014°41'0 0.0
2015-May-21 17:33N 35°51' E 014°41'0 0.1
2015-May-21 16:33N 35°51' E 014°41'0 0.0
2015-May-21 15:15N 35°51' E 014°41'0 0.0
2015-May-21 14:27N 35°51' E 014°41'0 0.1
2015-May-21 13:33N 35°52' E 014°40'0 0.1
2015-May-21 12:33N 35°52' E 014°40'0 0.0
2015-May-21 11:33N 35°52' E 014°40'0 0.1
2015-May-21 10:33N 35°51' E 014°40'0 0.0
2015-May-21 09:33N 35°52' E 014°40'0 0.0
2015-May-21 08:33N 35°52' E 014°41'0 0.1
2015-May-21 07:33N 35°51' E 014°41'0 0.0
2015-May-21 06:33N 35°51' E 014°41'0 0.0
2015-May-21 05:33N 35°51' E 014°41'0 0.1
2015-May-21 04:33N 35°51' E 014°41'0 0.0
2015-May-21 03:33N 35°51' E 014°41'0 0.2
2015-May-21 02:33N 35°52' E 014°41'0 0.0
2015-May-21 01:33N 35°52' E 014°41'0 0.1
2015-May-21 00:33N 35°52' E 014°41'0 0.0
2015-May-20 23:33N 35°52' E 014°41'0 0.1
2015-May-20 22:30N 35°52' E 014°41'0 0.0
2015-May-20 21:33N 35°52' E 014°41'0 0.0
2015-May-20 20:33N 35°52' E 014°41'0 0.1
2015-May-20 19:33N 35°52' E 014°41'0 0.0
2015-May-20 18:33N 35°52' E 014°41'0 0.0
2015-May-20 17:33N 35°52' E 014°41'0 0.0
2015-May-20 16:33N 35°52' E 014°41'0 0.1
2015-May-20 15:33N 35°52' E 014°41'0 0.0
2015-May-20 14:33N 35°51' E 014°41'0 0.2
2015-May-20 13:33N 35°52' E 014°41'0 0.1
2015-May-20 12:33N 35°52' E 014°41'0 0.0
2015-May-20 11:24N 35°52' E 014°41'0 0.1
2015-May-20 10:30N 35°52' E 014°41'0 0.0
2015-May-20 09:33N 35°52' E 014°41'0 0.1
2015-May-20 08:33N 35°52' E 014°41'0 0.0
2015-May-20 07:27N 35°52' E 014°41'0 0.0
2015-May-20 06:33N 35°52' E 014°41'0 0.0
2015-May-20 05:33N 35°52' E 014°41'0 0.0
2015-May-20 04:33N 35°52' E 014°41'0 0.1
2015-May-20 03:33N 35°52' E 014°41'0 0.0
2015-May-20 02:33N 35°52' E 014°41'0 0.1
2015-May-20 01:33N 35°52' E 014°41'0 0.1
2015-May-20 00:33N 35°52' E 014°41'0 0.1
2015-May-19 23:33N 35°52' E 014°41'0 0.1
2015-May-19 22:33N 35°51' E 014°41'0 0.0
2015-May-19 21:33N 35°51' E 014°41'0 0.0
2015-May-19 20:33N 35°51' E 014°41'0 0.1
2015-May-19 19:33N 35°52' E 014°41'0 0.0
2015-May-19 18:33N 35°52' E 014°41'0 0.0
2015-May-19 17:33N 35°52' E 014°41'0 0.0
2015-May-19 16:33N 35°52' E 014°41'0 0.1
2015-May-19 15:33N 35°52' E 014°41'6 4.9
2015-May-19 14:24N 35°47' E 014°37'1011.5
2015-May-19 13:33N 35°41' E 014°27'1110.7
2015-May-19 12:33N 35°37' E 014°15'9 9.2
2015-May-19 11:33N 35°33' E 014°05'9 9.0
2015-May-19 10:33N 35°30' E 013°54'9 9.1
2015-May-19 09:33N 35°26' E 013°44'9 9.1
2015-May-19 08:33N 35°23' E 013°34'9 8.9
2015-May-19 07:33N 35°19' E 013°24'9 9.2
2015-May-19 06:33N 35°14' E 013°14'10 9.6
2015-May-19 05:32N 35°10' E 013°04'10 9.4
2015-May-19 04:25N 35°05' E 012°52'9 9.2
2015-May-19 03:27N 35°01' E 012°42'9 9.2
2015-May-19 02:30N 34°57' E 012°33'  
Track history (hours):
 
Tides and Currents Weather Stations Pressure Air Temp Water Temp Dewpoint Dewpoint Depression Visibility Wind Speed Wind Dir Waves Ship Positions

Alexander Maersk

Last reported at 2015-May-26 07:03 UTC. Time now 2015-May-28 04:06 UTC.
Position N 32°39' E 015°15'.

Length 155 m; draft 9.6 m.

Type: Ship. MMSI: 219470000.

Date/timePositionNaut miles runAvg speedWind from/ knotsBaromVisibWave heightAir tempDewpointWater temp
2015-May-26 07:03N 32°39' E 015°15'4 8.0
2015-May-26 06:33N 32°43' E 015°14'35 7.9
2015-May-26 02:07N 33°18' E 015°07'4 7.9
2015-May-26 01:33N 33°22' E 015°06'9 7.9
2015-May-26 00:23N 33°31' E 015°04'7 8.0
2015-May-25 23:33N 33°38' E 015°02'8 8.3
2015-May-25 22:33N 33°46' E 015°01'8 8.4
2015-May-25 21:33N 33°54' E 014°59'44 8.7
2015-May-25 16:32N 34°37' E 014°49'9 9.0
2015-May-25 15:32N 34°46' E 014°47'54 8.9
2015-May-25 09:31N 35°39' E 014°37'9 9.1
2015-May-25 08:33N 35°48' E 014°34'2 0.1
2015-May-24 00:21N 35°49' E 014°33'4 4.6
2015-May-23 23:34N 35°48' E 014°37'4 4.3
2015-May-23 22:33N 35°51' E 014°41'0 0.1
2015-May-23 21:33N 35°51' E 014°41'0 0.0
2015-May-23 20:33N 35°51' E 014°41'0 0.0
2015-May-23 19:33N 35°51' E 014°41'0 0.0
2015-May-23 18:33N 35°51' E 014°41'0 0.0
2015-May-23 17:33N 35°51' E 014°41'0 0.0
2015-May-23 16:33N 35°51' E 014°41'0 0.0
2015-May-23 15:33N 35°51' E 014°41'0 0.0
2015-May-23 14:33N 35°51' E 014°41'0 0.0
2015-May-23 13:33N 35°51' E 014°41'0 0.0
2015-May-23 12:33N 35°51' E 014°41'0 0.1
2015-May-23 11:33N 35°51' E 014°41'0 0.0
2015-May-23 10:33N 35°51' E 014°41'0 0.0
2015-May-23 09:33N 35°51' E 014°41'0 0.0
2015-May-23 08:33N 35°51' E 014°41'0 0.0
2015-May-23 07:33N 35°51' E 014°41'0 0.0
2015-May-23 06:33N 35°51' E 014°41'0 0.0
2015-May-23 05:33N 35°51' E 014°41'0 0.1
2015-May-23 04:33N 35°51' E 014°41'0 0.0
2015-May-23 03:33N 35°51' E 014°41'0 0.0
2015-May-23 02:30N 35°51' E 014°41'0 0.0
2015-May-23 01:33N 35°51' E 014°41'0 0.0
2015-May-23 00:33N 35°51' E 014°41'0 0.0
2015-May-22 23:33N 35°51' E 014°41'0 0.0
2015-May-22 22:33N 35°51' E 014°41'0 0.0
2015-May-22 21:33N 35°51' E 014°41'0 0.1
2015-May-22 20:33N 35°51' E 014°41'0 0.0
2015-May-22 19:33N 35°51' E 014°41'0 0.0
2015-May-22 18:33N 35°51' E 014°41'0 0.0
2015-May-22 17:33N 35°51' E 014°41'0 0.1
2015-May-22 16:33N 35°51' E 014°41'0 0.1
2015-May-22 15:33N 35°51' E 014°41'0 0.0
2015-May-22 14:33N 35°51' E 014°41'0 0.0
2015-May-22 13:33N 35°51' E 014°41'0 0.0
2015-May-22 12:33N 35°51' E 014°41'0 0.0
2015-May-22 11:33N 35°51' E 014°41'0 0.0
2015-May-22 10:33N 35°51' E 014°41'0 0.0
2015-May-22 09:33N 35°51' E 014°41'0 0.0
2015-May-22 08:33N 35°51' E 014°41'0 0.0
2015-May-22 07:33N 35°51' E 014°41'0 0.0
2015-May-22 06:33N 35°51' E 014°41'0 0.0
2015-May-22 05:30N 35°51' E 014°41'0 0.0
2015-May-22 04:33N 35°51' E 014°41'0 0.0
2015-May-22 03:33N 35°51' E 014°41'0 0.0
2015-May-22 02:33N 35°51' E 014°41'0 0.0
2015-May-22 01:33N 35°51' E 014°41'0 0.0
2015-May-22 00:33N 35°51' E 014°41'0 0.0
2015-May-21 23:33N 35°51' E 014°41'0 0.0
2015-May-21 22:33N 35°51' E 014°41'0 0.1
2015-May-21 21:33N 35°51' E 014°41'0 0.0
2015-May-21 20:33N 35°51' E 014°41'0 0.0
2015-May-21 19:33N 35°51' E 014°41'0 0.1
2015-May-21 18:27N 35°51' E 014°41'0 0.0
2015-May-21 17:33N 35°51' E 014°41'0 0.1
2015-May-21 16:33N 35°51' E 014°41'0 0.0
2015-May-21 15:15N 35°51' E 014°41'0 0.0
2015-May-21 14:27N 35°51' E 014°41'0 0.1
2015-May-21 13:33N 35°52' E 014°40'0 0.1
2015-May-21 12:33N 35°52' E 014°40'0 0.0
2015-May-21 11:33N 35°52' E 014°40'0 0.1
2015-May-21 10:33N 35°51' E 014°40'0 0.0
2015-May-21 09:33N 35°52' E 014°40'0 0.0
2015-May-21 08:33N 35°52' E 014°41'0 0.1
2015-May-21 07:33N 35°51' E 014°41'0 0.0
2015-May-21 06:33N 35°51' E 014°41'0 0.0
2015-May-21 05:33N 35°51' E 014°41'0 0.1
2015-May-21 04:33N 35°51' E 014°41'0 0.0
2015-May-21 03:33N 35°51' E 014°41'0 0.2
2015-May-21 02:33N 35°52' E 014°41'0 0.0
2015-May-21 01:33N 35°52' E 014°41'0 0.1
2015-May-21 00:33N 35°52' E 014°41'0 0.0
2015-May-20 23:33N 35°52' E 014°41'0 0.1
2015-May-20 22:30N 35°52' E 014°41'0 0.0
2015-May-20 21:33N 35°52' E 014°41'0 0.0
2015-May-20 20:33N 35°52' E 014°41'0 0.1
2015-May-20 19:33N 35°52' E 014°41'0 0.0
2015-May-20 18:33N 35°52' E 014°41'0 0.0
2015-May-20 17:33N 35°52' E 014°41'0 0.0
2015-May-20 16:33N 35°52' E 014°41'0 0.1
2015-May-20 15:33N 35°52' E 014°41'0 0.0
2015-May-20 14:33N 35°51' E 014°41'0 0.2
2015-May-20 13:33N 35°52' E 014°41'0 0.1
2015-May-20 12:33N 35°52' E 014°41'0 0.0
2015-May-20 11:24N 35°52' E 014°41'0 0.1
2015-May-20 10:30N 35°52' E 014°41'0 0.0
2015-May-20 09:33N 35°52' E 014°41'0 0.1
2015-May-20 08:33N 35°52' E 014°41'0 0.0
2015-May-20 07:27N 35°52' E 014°41'0 0.0
2015-May-20 06:33N 35°52' E 014°41'0 0.0
2015-May-20 05:33N 35°52' E 014°41'0 0.0
2015-May-20 04:33N 35°52' E 014°41'0 0.1
2015-May-20 03:33N 35°52' E 014°41'0 0.0
2015-May-20 02:33N 35°52' E 014°41'0 0.1
2015-May-20 01:33N 35°52' E 014°41'0 0.1
2015-May-20 00:33N 35°52' E 014°41'0 0.1
2015-May-19 23:33N 35°52' E 014°41'0 0.1
2015-May-19 22:33N 35°51' E 014°41'0 0.0
2015-May-19 21:33N 35°51' E 014°41'0 0.0
2015-May-19 20:33N 35°51' E 014°41'0 0.1
2015-May-19 19:33N 35°52' E 014°41'0 0.0
2015-May-19 18:33N 35°52' E 014°41'0 0.0
2015-May-19 17:33N 35°52' E 014°41'0 0.0
2015-May-19 16:33N 35°52' E 014°41'0 0.1
2015-May-19 15:33N 35°52' E 014°41'6 4.9
2015-May-19 14:24N 35°47' E 014°37'1011.5
2015-May-19 13:33N 35°41' E 014°27'1110.7
2015-May-19 12:33N 35°37' E 014°15'9 9.2
2015-May-19 11:33N 35°33' E 014°05'9 9.0
2015-May-19 10:33N 35°30' E 013°54'9 9.1
2015-May-19 09:33N 35°26' E 013°44'9 9.1
2015-May-19 08:33N 35°23' E 013°34'9 8.9
2015-May-19 07:33N 35°19' E 013°24'9 9.2
2015-May-19 06:33N 35°14' E 013°14'10 9.6
2015-May-19 05:32N 35°10' E 013°04'10 9.4
2015-May-19 04:25N 35°05' E 012°52'9 9.2
2015-May-19 03:27N 35°01' E 012°42'9 9.2
2015-May-19 02:30N 34°57' E 012°33'  

Dump ship's entire track history